Time;durP1;ratioP1;P1;durP2;ratioP2;P2;SDS_P1;SDS_P2;PMS_P1;PMS_P2;Temp;Humidity;BMP_temperature;BMP_pressure;BME280_temperature;BME280_humidity;BME280_pressure;Samples;Min_cycle;Max_cycle;Signal;HPM_P1;HPM_P2
2020/12/20 00:00:38;;;;;;;82.50;49.03;;;;;;;;;;5037117;28;20083;-66
2020/12/20 00:03:05;;;;;;;88.80;51.47;;;;;;;;;;5055043;28;20378;-67
2020/12/20 00:05:31;;;;;;;80.13;50.60;;;;;;;;;;5054779;28;20124;-67
2020/12/20 00:07:58;;;;;;;95.47;52.15;;;;;;;;;;5054915;28;20027;-66
2020/12/20 00:10:25;;;;;;;88.65;51.53;;;;;;;;;;5055003;28;20025;-67
2020/12/20 00:12:51;;;;;;;87.70;50.38;;;;;;;;;;5054863;28;20446;-67
2020/12/20 00:15:19;;;;;;;80.65;49.88;;;;;;;;;;5054602;28;20039;-66
2020/12/20 00:17:46;;;;;;;93.00;50.08;;;;;;;;;;5054560;28;20416;-67
2020/12/20 00:20:12;;;;;;;83.40;49.42;;;;;;;;;;5054665;28;20079;-66
2020/12/20 00:22:39;;;;;;;86.18;50.03;;;;;;;;;;5054099;28;20512;-67
2020/12/20 00:25:05;;;;;;;82.43;50.45;;;;;;;;;;5054621;28;20041;-67
2020/12/20 00:27:31;;;;;;;83.88;49.78;;;;;;;;;;5054280;28;20021;-67
2020/12/20 00:29:57;;;;;;;82.93;48.90;;;;;;;;;;5054306;28;20021;-66
2020/12/20 00:32:23;;;;;;;77.35;47.55;;;;;;;;;;5054512;28;20021;-67
2020/12/20 00:34:49;;;;;;;79.80;48.00;;;;;;;;;;5054286;28;20032;-66
2020/12/20 00:37:16;;;;;;;85.07;49.67;;;;;;;;;;5054389;28;20032;-66
2020/12/20 00:39:42;;;;;;;80.22;49.88;;;;;;;;;;5054302;28;20060;-66
2020/12/20 00:42:08;;;;;;;79.82;49.60;;;;;;;;;;5054033;28;20024;-65
2020/12/20 00:44:35;;;;;;;81.65;50.65;;;;;;;;;;5053979;28;20032;-66
2020/12/20 00:47:02;;;;;;;82.15;50.70;;;;;;;;;;5053938;28;20063;-67
2020/12/20 00:49:29;;;;;;;90.72;52.03;;;;;;;;;;5053995;28;20535;-67
2020/12/20 00:51:57;;;;;;;83.20;48.75;;;;;;;;;;5053745;28;20110;-66
2020/12/20 00:54:23;;;;;;;83.47;48.58;;;;;;;;;;5053806;28;20108;-67
2020/12/20 00:56:49;;;;;;;83.55;50.33;;;;;;;;;;5054111;28;20031;-65
2020/12/20 00:59:15;;;;;;;80.95;47.67;;;;;;;;;;5054120;28;20079;-66
2020/12/20 01:01:41;;;;;;;78.75;47.85;;;;;;;;;;5053771;28;20470;-66
2020/12/20 01:04:08;;;;;;;80.65;47.67;;;;;;;;;;5053582;28;20037;-66
2020/12/20 01:06:34;;;;;;;77.78;47.38;;;;;;;;;;5053661;28;20028;-66
2020/12/20 01:09:00;;;;;;;77.40;48.40;;;;;;;;;;5035691;28;20025;-66
2020/12/20 01:11:27;;;;;;;75.10;47.67;;;;;;;;;;5053783;28;20470;-66
2020/12/20 01:13:54;;;;;;;73.68;47.05;;;;;;;;;;5053555;28;20017;-66
2020/12/20 01:16:21;;;;;;;82.50;48.50;;;;;;;;;;5035732;28;20090;-66
2020/12/20 01:18:47;;;;;;;90.35;50.90;;;;;;;;;;5053422;28;20082;-66
2020/12/20 01:21:14;;;;;;;89.72;50.78;;;;;;;;;;5053463;28;20101;-66
2020/12/20 01:23:40;;;;;;;84.30;50.17;;;;;;;;;;5053281;28;20052;-66
2020/12/20 01:26:06;;;;;;;82.65;49.05;;;;;;;;;;5053510;28;20025;-66
2020/12/20 01:28:33;;;;;;;86.97;50.78;;;;;;;;;;5053250;28;20492;-66
2020/12/20 01:31:00;;;;;;;81.55;48.55;;;;;;;;;;5053616;28;20036;-65
2020/12/20 01:33:26;;;;;;;83.80;49.65;;;;;;;;;;5053221;28;20032;-66
2020/12/20 01:35:52;;;;;;;84.88;49.75;;;;;;;;;;5053172;28;20023;-66
2020/12/20 01:38:18;;;;;;;86.35;50.13;;;;;;;;;;5053082;28;20033;-66
2020/12/20 01:40:52;;;;;;;82.95;48.75;;;;;;;;;;5053566;28;20071;-66
2020/12/20 01:43:18;;;;;;;86.07;48.92;;;;;;;;;;5052992;28;20071;-66
2020/12/20 01:45:44;;;;;;;82.53;49.15;;;;;;;;;;5035243;28;20037;-66
2020/12/20 01:48:11;;;;;;;81.40;49.50;;;;;;;;;;5053511;28;20448;-66
2020/12/20 01:50:37;;;;;;;87.35;50.60;;;;;;;;;;5053009;28;20029;-66
2020/12/20 01:53:04;;;;;;;86.07;49.63;;;;;;;;;;5053236;28;20370;-66
2020/12/20 01:55:31;;;;;;;89.05;51.30;;;;;;;;;;5053070;28;20025;-66
2020/12/20 01:57:57;;;;;;;92.45;52.28;;;;;;;;;;5053005;28;20025;-66
2020/12/20 02:00:23;;;;;;;84.70;50.15;;;;;;;;;;5052873;28;20021;-67
2020/12/20 02:02:49;;;;;;;95.57;52.30;;;;;;;;;;5053298;28;20036;-67
2020/12/20 02:05:16;;;;;;;88.25;49.95;;;;;;;;;;5057191;28;20037;-67
2020/12/20 02:07:42;;;;;;;88.38;50.72;;;;;;;;;;5057083;28;20104;-67
2020/12/20 02:10:08;;;;;;;99.78;53.35;;;;;;;;;;5057175;28;20039;-67
2020/12/20 02:12:34;;;;;;;84.55;50.58;;;;;;;;;;5057054;28;20036;-66
2020/12/20 02:15:00;;;;;;;95.45;53.47;;;;;;;;;;5039091;28;20025;-67
2020/12/20 02:17:26;;;;;;;93.97;51.90;;;;;;;;;;5056923;28;20021;-66
2020/12/20 02:19:52;;;;;;;88.35;51.58;;;;;;;;;;5056783;28;20028;-67
2020/12/20 02:22:19;;;;;;;88.53;51.60;;;;;;;;;;5056617;28;20048;-67
2020/12/20 02:24:45;;;;;;;88.85;52.13;;;;;;;;;;5056843;28;20033;-66
2020/12/20 02:27:11;;;;;;;91.60;53.20;;;;;;;;;;5056893;28;20033;-66
2020/12/20 02:29:37;;;;;;;89.03;51.92;;;;;;;;;;5056540;28;20029;-67
2020/12/20 02:32:03;;;;;;;92.85;51.88;;;;;;;;;;5056650;28;20024;-66
2020/12/20 02:34:29;;;;;;;91.80;50.88;;;;;;;;;;5056628;28;20227;-66
2020/12/20 02:36:55;;;;;;;87.35;49.90;;;;;;;;;;5056515;28;20021;-66
2020/12/20 02:39:22;;;;;;;91.47;52.63;;;;;;;;;;5056599;28;20021;-66
2020/12/20 02:41:48;;;;;;;92.90;52.03;;;;;;;;;;5056712;28;20025;-66
2020/12/20 02:44:14;;;;;;;86.05;51.30;;;;;;;;;;5056530;28;20112;-64
2020/12/20 02:46:43;;;;;;;92.22;52.22;;;;;;;;;;5056346;28;20017;-66
2020/12/20 02:49:09;;;;;;;90.68;51.47;;;;;;;;;;5056233;28;20083;-66
2020/12/20 02:51:38;;;;;;;91.22;53.28;;;;;;;;;;5056223;28;20028;-66
2020/12/20 02:54:04;;;;;;;94.93;52.90;;;;;;;;;;5056319;28;20536;-66
2020/12/20 02:56:31;;;;;;;96.90;52.97;;;;;;;;;;5056042;28;20032;-66
2020/12/20 02:58:57;;;;;;;93.45;52.53;;;;;;;;;;5056305;28;20024;-66
2020/12/20 03:01:23;;;;;;;92.28;52.15;;;;;;;;;;5055998;28;20480;-66
2020/12/20 03:03:49;;;;;;;92.15;53.00;;;;;;;;;;5055932;28;20033;-66
2020/12/20 03:06:15;;;;;;;88.55;51.50;;;;;;;;;;5055879;28;20033;-66
2020/12/20 03:08:41;;;;;;;93.68;52.85;;;;;;;;;;5056289;28;20032;-66
2020/12/20 03:11:07;;;;;;;93.50;54.70;;;;;;;;;;5055749;28;20037;-66
2020/12/20 03:13:34;;;;;;;95.97;55.22;;;;;;;;;;5056116;28;20028;-66
2020/12/20 03:16:01;;;;;;;86.82;52.47;;;;;;;;;;5055616;28;20068;-66
2020/12/20 03:18:27;;;;;;;90.75;53.58;;;;;;;;;;5055680;28;20024;-66
2020/12/20 03:20:53;;;;;;;89.45;53.17;;;;;;;;;;5055627;28;20056;-66
2020/12/20 03:23:19;;;;;;;90.90;53.83;;;;;;;;;;5055604;28;20052;-66
2020/12/20 03:25:45;;;;;;;93.43;55.92;;;;;;;;;;5055427;28;20033;-66
2020/12/20 03:28:12;;;;;;;94.57;53.75;;;;;;;;;;5055798;28;20364;-66
2020/12/20 03:30:38;;;;;;;93.63;55.65;;;;;;;;;;5055298;28;20091;-66
2020/12/20 03:33:04;;;;;;;96.63;54.70;;;;;;;;;;5055437;28;20021;-66
2020/12/20 03:35:30;;;;;;;93.30;52.50;;;;;;;;;;5055680;28;20075;-66
2020/12/20 03:37:56;;;;;;;92.75;55.53;;;;;;;;;;5055590;28;20223;-66
2020/12/20 03:40:24;;;;;;;92.68;54.75;;;;;;;;;;5055487;28;20389;-66
2020/12/20 03:42:50;;;;;;;95.18;54.22;;;;;;;;;;5055502;28;20025;-65
2020/12/20 03:45:17;;;;;;;90.75;53.38;;;;;;;;;;5055372;28;20116;-66
2020/12/20 03:47:44;;;;;;;88.30;54.13;;;;;;;;;;5055179;28;20070;-66
2020/12/20 03:50:10;;;;;;;96.93;56.70;;;;;;;;;;5055363;28;20029;-65
2020/12/20 03:52:36;;;;;;;91.43;54.30;;;;;;;;;;5055435;28;20021;-66
2020/12/20 03:55:03;;;;;;;93.35;56.03;;;;;;;;;;5055417;28;20422;-66
2020/12/20 03:57:29;;;;;;;91.05;54.88;;;;;;;;;;5054879;28;20028;-66
2020/12/20 03:59:57;;;;;;;94.63;55.55;;;;;;;;;;5054990;28;20033;-66
2020/12/20 04:02:23;;;;;;;107.75;57.03;;;;;;;;;;5054856;28;20025;-66
2020/12/20 04:04:49;;;;;;;100.07;56.22;;;;;;;;;;5054830;28;20079;-66
2020/12/20 04:07:16;;;;;;;105.00;55.30;;;;;;;;;;5054725;28;20454;-66
2020/12/20 04:09:43;;;;;;;95.78;53.42;;;;;;;;;;5054728;28;20508;-66
2020/12/20 04:12:09;;;;;;;93.45;54.33;;;;;;;;;;5054921;28;20055;-66
2020/12/20 04:14:35;;;;;;;99.60;55.03;;;;;;;;;;5054931;28;20020;-66
2020/12/20 04:17:01;;;;;;;92.53;55.50;;;;;;;;;;5054468;28;20063;-66
2020/12/20 04:19:27;;;;;;;91.32;52.53;;;;;;;;;;5054707;28;20105;-67
2020/12/20 04:21:54;;;;;;;96.72;54.58;;;;;;;;;;5054361;28;20076;-67
2020/12/20 04:24:20;;;;;;;91.88;52.95;;;;;;;;;;5054444;28;20044;-66
2020/12/20 04:26:46;;;;;;;94.43;53.70;;;;;;;;;;5053749;28;20020;-66
2020/12/20 04:29:12;;;;;;;99.18;56.88;;;;;;;;;;5054729;28;20046;-67
2020/12/20 04:31:39;;;;;;;102.43;57.47;;;;;;;;;;5054118;28;20029;-66
2020/12/20 04:34:05;;;;;;;98.88;56.30;;;;;;;;;;5054592;28;20104;-66
2020/12/20 04:36:31;;;;;;;103.03;57.55;;;;;;;;;;5054152;28;20032;-66
2020/12/20 04:38:57;;;;;;;90.55;52.53;;;;;;;;;;5054552;28;20029;-66
2020/12/20 04:41:25;;;;;;;98.65;58.20;;;;;;;;;;5054187;28;20021;-66
2020/12/20 04:43:51;;;;;;;100.80;54.75;;;;;;;;;;5052892;28;20072;-66
2020/12/20 04:46:18;;;;;;;94.03;55.00;;;;;;;;;;5054109;28;20087;-67
2020/12/20 04:48:45;;;;;;;103.63;56.42;;;;;;;;;;5054334;28;20032;-66
2020/12/20 04:51:11;;;;;;;103.18;53.78;;;;;;;;;;5054078;28;20466;-66
2020/12/20 04:53:37;;;;;;;95.22;55.25;;;;;;;;;;5053875;28;20067;-66
2020/12/20 04:56:08;;;;;;;92.90;54.47;;;;;;;;;;5053939;28;20029;-66
2020/12/20 04:58:35;;;;;;;97.47;54.72;;;;;;;;;;5053748;28;20017;-66
2020/12/20 05:01:01;;;;;;;96.78;54.08;;;;;;;;;;5053663;28;20048;-65
2020/12/20 05:03:27;;;;;;;91.70;53.72;;;;;;;;;;5035607;28;20028;-67
2020/12/20 05:05:54;;;;;;;96.82;56.22;;;;;;;;;;5053928;28;20082;-66
2020/12/20 05:08:21;;;;;;;93.60;54.15;;;;;;;;;;5053747;28;20062;-66
2020/12/20 05:10:47;;;;;;;96.47;56.40;;;;;;;;;;5053679;28;20036;-66
2020/12/20 05:13:14;;;;;;;101.25;56.22;;;;;;;;;;5053425;28;20098;-66
2020/12/20 05:15:40;;;;;;;96.07;53.92;;;;;;;;;;5053967;28;20035;-66
2020/12/20 05:18:10;;;;;;;103.70;55.75;;;;;;;;;;5053748;28;20013;-66
2020/12/20 05:20:37;;;;;;;98.10;53.88;;;;;;;;;;5053273;28;20032;-66
2020/12/20 05:23:04;;;;;;;99.72;53.63;;;;;;;;;;5053264;28;20029;-66
2020/12/20 05:25:32;;;;;;;101.45;54.08;;;;;;;;;;5053833;28;20041;-66
2020/12/20 05:28:11;;;;;;;102.35;55.03;;;;;;;;;;5053288;28;20025;-66
2020/12/20 05:30:38;;;;;;;99.25;52.90;;;;;;;;;;5053301;28;20609;-66
2020/12/20 05:33:05;;;;;;;105.40;57.42;;;;;;;;;;5053113;28;20478;-66
2020/12/20 05:35:32;;;;;;;108.72;57.38;;;;;;;;;;5053361;28;20111;-66
2020/12/20 05:37:58;;;;;;;111.15;58.40;;;;;;;;;;5052137;28;20078;-66
2020/12/20 05:40:29;;;;;;;110.30;56.63;;;;;;;;;;5053218;28;20383;-66
2020/12/20 05:43:08;;;;;;;103.47;56.08;;;;;;;;;;5053252;28;20386;-66
2020/12/20 05:45:35;;;;;;;100.70;55.95;;;;;;;;;;5053172;28;20039;-66
2020/12/20 05:48:15;;;;;;;105.65;57.33;;;;;;;;;;5053014;28;20071;-66
2020/12/20 05:50:48;;;;;;;99.00;54.17;;;;;;;;;;5053405;28;20430;-66
2020/12/20 05:53:14;;;;;;;99.32;54.22;;;;;;;;;;5053566;28;20364;-66
2020/12/20 05:55:41;;;;;;;100.43;55.92;;;;;;;;;;5052950;28;20033;-65
2020/12/20 05:58:11;;;;;;;109.22;54.63;;;;;;;;;;5053330;28;20123;-66
2020/12/20 06:00:39;;;;;;;102.60;56.00;;;;;;;;;;5052957;28;20031;-66
2020/12/20 06:03:05;;;;;;;105.55;57.58;;;;;;;;;;5053061;28;20063;-66
2020/12/20 06:05:37;;;;;;;101.13;54.80;;;;;;;;;;5053194;28;20029;-66
2020/12/20 06:08:05;;;;;;;101.95;55.45;;;;;;;;;;5052895;28;20022;-66
2020/12/20 06:10:35;;;;;;;96.32;55.60;;;;;;;;;;5052917;28;20036;-66
2020/12/20 06:13:03;;;;;;;95.65;55.95;;;;;;;;;;5053008;28;20035;-65
2020/12/20 06:15:31;;;;;;;98.78;56.47;;;;;;;;;;5053035;28;20393;-66
2020/12/20 06:17:58;;;;;;;124.45;69.55;;;;;;;;;;5052882;28;20025;-66
2020/12/20 06:20:31;;;;;;;191.02;142.57;;;;;;;;;;5052961;28;20035;-66
2020/12/20 06:22:57;;;;;;;106.72;66.25;;;;;;;;;;5072952;28;20047;-66
2020/12/20 06:25:24;;;;;;;98.75;61.20;;;;;;;;;;5072891;28;20037;-66
2020/12/20 06:27:50;;;;;;;97.82;61.13;;;;;;;;;;5072726;28;20104;-65
2020/12/20 06:30:16;;;;;;;97.18;58.35;;;;;;;;;;5072940;28;20062;-67
2020/12/20 06:32:43;;;;;;;113.20;74.45;;;;;;;;;;5072488;28;20027;-68
2020/12/20 06:35:15;;;;;;;115.85;79.32;;;;;;;;;;5072667;28;20028;-69
2020/12/20 06:37:42;;;;;;;112.80;71.32;;;;;;;;;;5072714;28;20032;-68
2020/12/20 06:40:09;;;;;;;100.78;60.03;;;;;;;;;;5072812;28;20021;-68
2020/12/20 06:42:36;;;;;;;97.72;59.08;;;;;;;;;;5072963;28;20025;-68
2020/12/20 06:45:18;;;;;;;102.15;60.95;;;;;;;;;;5072466;28;20040;-68
2020/12/20 06:47:49;;;;;;;105.45;58.22;;;;;;;;;;5072674;28;20023;-69
2020/12/20 06:50:35;;;;;;;99.88;56.35;;;;;;;;;;5074707;28;20025;-68
2020/12/20 06:53:01;;;;;;;97.90;56.78;;;;;;;;;;5076060;28;20397;-68
2020/12/20 06:55:28;;;;;;;97.75;56.67;;;;;;;;;;5076337;28;20036;-69
2020/12/20 06:58:03;;;;;;;96.95;54.83;;;;;;;;;;5076292;28;20111;-68
2020/12/20 07:00:47;;;;;;;94.85;53.45;;;;;;;;;;5075877;28;20040;-67
2020/12/20 07:03:23;;;;;;;92.10;52.95;;;;;;;;;;5036088;28;20545;-68
2020/12/20 07:05:49;;;;;;;88.80;50.50;;;;;;;;;;5071735;28;20115;-68
2020/12/20 07:08:22;;;;;;;95.68;51.65;;;;;;;;;;5075865;28;20096;-68
2020/12/20 07:10:52;;;;;;;98.75;53.53;;;;;;;;;;5076129;28;20415;-69
2020/12/20 07:13:32;;;;;;;93.18;50.75;;;;;;;;;;5076129;28;20028;-68
2020/12/20 07:16:06;;;;;;;92.45;51.45;;;;;;;;;;5073123;28;20612;-69
2020/12/20 07:18:39;;;;;;;94.88;51.75;;;;;;;;;;5056001;28;20021;-70
2020/12/20 07:21:05;;;;;;;96.07;53.03;;;;;;;;;;5055606;28;20132;-68
2020/12/20 07:23:31;;;;;;;93.55;51.58;;;;;;;;;;5055898;28;20386;-67
2020/12/20 07:25:57;;;;;;;91.90;52.63;;;;;;;;;;5055867;28;20359;-70
2020/12/20 07:28:24;;;;;;;92.43;51.50;;;;;;;;;;5055683;28;20040;-67
2020/12/20 07:30:50;;;;;;;99.32;53.78;;;;;;;;;;5055496;28;20025;-69
2020/12/20 07:33:19;;;;;;;92.18;53.42;;;;;;;;;;5055486;28;20033;-68
2020/12/20 07:35:46;;;;;;;95.32;53.33;;;;;;;;;;5055610;28;20114;-67
2020/12/20 07:38:12;;;;;;;99.13;54.03;;;;;;;;;;5054443;28;20029;-68
2020/12/20 07:40:38;;;;;;;98.57;56.13;;;;;;;;;;5053477;28;20025;-68
2020/12/20 07:43:04;;;;;;;128.88;78.18;;;;;;;;;;5053516;28;20405;-68
2020/12/20 07:45:31;;;;;;;100.22;56.42;;;;;;;;;;5052847;28;20436;-68
2020/12/20 07:47:57;;;;;;;104.28;57.28;;;;;;;;;;5053570;28;20029;-68
2020/12/20 07:50:24;;;;;;;100.43;54.70;;;;;;;;;;5055509;28;20434;-67
2020/12/20 07:52:50;;;;;;;95.85;54.83;;;;;;;;;;5054505;28;20025;-68
2020/12/20 07:55:16;;;;;;;95.85;53.42;;;;;;;;;;5054119;28;20147;-68
2020/12/20 07:57:45;;;;;;;93.60;55.17;;;;;;;;;;5054987;28;20032;-67
2020/12/20 08:00:11;;;;;;;89.68;55.53;;;;;;;;;;5054660;28;20024;-68
2020/12/20 08:02:38;;;;;;;96.85;56.95;;;;;;;;;;5054078;28;20355;-68
2020/12/20 08:05:11;;;;;;;102.82;55.50;;;;;;;;;;5054792;28;20033;-67
2020/12/20 08:07:38;;;;;;;91.07;52.10;;;;;;;;;;5054848;28;20570;-68
2020/12/20 08:10:07;;;;;;;92.35;51.22;;;;;;;;;;5053828;28;20032;-68
2020/12/20 08:12:33;;;;;;;89.85;49.72;;;;;;;;;;5052804;28;20025;-68
2020/12/20 08:15:04;;;;;;;85.90;50.38;;;;;;;;;;5053599;28;20428;-68
2020/12/20 08:17:30;;;;;;;81.55;48.97;;;;;;;;;;5053992;28;20053;-68
2020/12/20 08:19:57;;;;;;;86.22;51.05;;;;;;;;;;5053879;28;20102;-69
2020/12/20 08:22:23;;;;;;;87.50;49.13;;;;;;;;;;5053687;28;20052;-68
2020/12/20 08:24:50;;;;;;;86.43;50.63;;;;;;;;;;5054713;28;20033;-69
2020/12/20 08:27:16;;;;;;;85.18;51.53;;;;;;;;;;5054319;28;20029;-68
2020/12/20 08:29:46;;;;;;;85.40;50.10;;;;;;;;;;5054634;28;20025;-68
2020/12/20 08:32:14;;;;;;;88.78;50.85;;;;;;;;;;5054598;28;20478;-68
2020/12/20 08:34:40;;;;;;;184.38;115.03;;;;;;;;;;5054213;28;20029;-68
2020/12/20 08:37:09;;;;;;;106.93;61.67;;;;;;;;;;5054213;28;20529;-68
2020/12/20 08:39:35;;;;;;;97.18;63.13;;;;;;;;;;5054279;28;20083;-68
2020/12/20 08:42:05;;;;;;;79.00;50.08;;;;;;;;;;5054061;28;20031;-68
2020/12/20 08:44:31;;;;;;;102.20;62.35;;;;;;;;;;5054340;28;20056;-68
2020/12/20 08:47:12;;;;;;;97.60;56.42;;;;;;;;;;5054155;28;20025;-67
2020/12/20 08:49:39;;;;;;;107.78;65.25;;;;;;;;;;5054232;28;20608;-68
2020/12/20 08:52:11;;;;;;;103.47;63.08;;;;;;;;;;5054109;28;20017;-68
2020/12/20 08:54:37;;;;;;;107.38;63.83;;;;;;;;;;5054203;28;20535;-68
2020/12/20 08:57:08;;;;;;;113.38;68.55;;;;;;;;;;5053939;28;20025;-68
2020/12/20 08:59:35;;;;;;;121.40;69.47;;;;;;;;;;5053919;28;20111;-68
2020/12/20 09:02:02;;;;;;;89.88;54.83;;;;;;;;;;5053924;28;20402;-68
2020/12/20 09:04:29;;;;;;;125.93;78.18;;;;;;;;;;5053748;28;20135;-68
2020/12/20 09:07:05;;;;;;;106.03;65.30;;;;;;;;;;5053917;28;20021;-68
2020/12/20 09:09:32;;;;;;;84.20;49.05;;;;;;;;;;5053965;28;20427;-68
2020/12/20 09:12:16;;;;;;;89.78;51.88;;;;;;;;;;5053764;28;20021;-68
2020/12/20 09:14:58;;;;;;;99.13;54.53;;;;;;;;;;5053601;28;20032;-68
2020/12/20 09:17:37;;;;;;;96.97;59.03;;;;;;;;;;5053544;28;20028;-68
2020/12/20 09:20:05;;;;;;;84.20;50.10;;;;;;;;;;5053518;28;20065;-67
2020/12/20 09:22:41;;;;;;;80.85;48.85;;;;;;;;;;5053091;28;20055;-68
2020/12/20 09:25:07;;;;;;;82.18;51.08;;;;;;;;;;5053307;28;20143;-68
2020/12/20 09:27:34;;;;;;;85.47;50.40;;;;;;;;;;5053289;28;20100;-68
2020/12/20 09:30:02;;;;;;;83.95;49.03;;;;;;;;;;5053374;28;20029;-68
2020/12/20 09:32:35;;;;;;;91.35;52.10;;;;;;;;;;5053201;28;20021;-68
2020/12/20 09:35:05;;;;;;;89.38;50.22;;;;;;;;;;5053286;28;20025;-68
2020/12/20 09:37:31;;;;;;;93.07;48.63;;;;;;;;;;5053450;28;20086;-68
2020/12/20 09:39:57;;;;;;;91.25;52.30;;;;;;;;;;5053398;28;20029;-68
2020/12/20 09:42:24;;;;;;;91.70;52.38;;;;;;;;;;5035352;28;20397;-68
2020/12/20 09:44:50;;;;;;;100.60;56.55;;;;;;;;;;5053130;28;20053;-67
2020/12/20 09:47:16;;;;;;;93.32;55.45;;;;;;;;;;5053009;28;20035;-68
2020/12/20 09:49:42;;;;;;;92.03;54.70;;;;;;;;;;5053188;28;20025;-68
2020/12/20 09:52:08;;;;;;;103.82;65.03;;;;;;;;;;5052913;28;20462;-68
2020/12/20 09:54:36;;;;;;;98.18;56.75;;;;;;;;;;5052995;28;20049;-68
2020/12/20 09:57:02;;;;;;;82.70;50.70;;;;;;;;;;5053240;28;20033;-68
2020/12/20 09:59:28;;;;;;;85.10;52.33;;;;;;;;;;5052958;28;20074;-68
2020/12/20 10:01:54;;;;;;;78.03;50.03;;;;;;;;;;5052993;28;20473;-68
2020/12/20 10:04:20;;;;;;;81.80;50.78;;;;;;;;;;5052862;28;20036;-68
2020/12/20 10:06:47;;;;;;;84.13;48.85;;;;;;;;;;5052948;28;20021;-68
2020/12/20 10:09:13;;;;;;;81.47;48.75;;;;;;;;;;5052881;28;20047;-68
2020/12/20 10:11:39;;;;;;;79.00;46.97;;;;;;;;;;5052941;28;20557;-68
2020/12/20 10:14:05;;;;;;;76.50;46.15;;;;;;;;;;5052827;28;20068;-68
2020/12/20 10:16:31;;;;;;;78.82;47.97;;;;;;;;;;5052921;28;20075;-68
2020/12/20 10:18:57;;;;;;;83.00;48.58;;;;;;;;;;5052699;28;20035;-68
2020/12/20 10:21:23;;;;;;;82.15;45.33;;;;;;;;;;5052525;28;20129;-68
2020/12/20 10:23:50;;;;;;;83.50;47.38;;;;;;;;;;5052651;28;20464;-68
2020/12/20 10:26:16;;;;;;;83.13;51.15;;;;;;;;;;5056719;28;20021;-68
2020/12/20 10:28:42;;;;;;;76.00;48.05;;;;;;;;;;5056587;28;20482;-68
2020/12/20 10:31:08;;;;;;;78.45;47.80;;;;;;;;;;5056665;28;20029;-68
2020/12/20 10:33:34;;;;;;;84.50;49.83;;;;;;;;;;5056443;28;20154;-68
2020/12/20 10:36:00;;;;;;;74.55;46.33;;;;;;;;;;5056515;28;20025;-68
2020/12/20 10:38:27;;;;;;;89.53;53.28;;;;;;;;;;5038847;28;20392;-68
2020/12/20 10:40:54;;;;;;;93.22;52.67;;;;;;;;;;5056671;28;20028;-68
2020/12/20 10:43:20;;;;;;;83.07;49.78;;;;;;;;;;5056250;28;20031;-68
2020/12/20 10:45:46;;;;;;;86.75;48.70;;;;;;;;;;5056204;28;20087;-68
2020/12/20 10:48:12;;;;;;;77.75;49.67;;;;;;;;;;5056531;28;20025;-68
2020/12/20 10:50:38;;;;;;;82.28;50.45;;;;;;;;;;5056480;28;20386;-68
2020/12/20 10:53:04;;;;;;;85.07;51.20;;;;;;;;;;5056045;28;20032;-67
2020/12/20 10:55:31;;;;;;;80.75;48.70;;;;;;;;;;5056443;28;20428;-68
2020/12/20 10:57:57;;;;;;;79.97;49.15;;;;;;;;;;5056081;28;20474;-68
2020/12/20 11:00:23;;;;;;;82.13;51.80;;;;;;;;;;5056035;28;20084;-68
2020/12/20 11:02:49;;;;;;;85.95;48.42;;;;;;;;;;5056152;28;20070;-68
2020/12/20 11:05:15;;;;;;;75.05;46.42;;;;;;;;;;5056198;28;20037;-68
2020/12/20 11:07:41;;;;;;;77.60;45.67;;;;;;;;;;5055959;28;20032;-68
2020/12/20 11:10:07;;;;;;;78.45;46.90;;;;;;;;;;5056209;28;20037;-68
2020/12/20 11:12:34;;;;;;;75.20;46.97;;;;;;;;;;5055943;28;20044;-68
2020/12/20 11:15:00;;;;;;;80.85;43.92;;;;;;;;;;5055685;28;20112;-67
2020/12/20 11:17:26;;;;;;;70.60;44.15;;;;;;;;;;5055678;28;20117;-68
2020/12/20 11:19:54;;;;;;;70.03;43.30;;;;;;;;;;5055737;28;20431;-68
2020/12/20 11:22:21;;;;;;;72.65;42.00;;;;;;;;;;5055447;28;20494;-68
2020/12/20 11:24:47;;;;;;;65.43;42.10;;;;;;;;;;5055879;28;20079;-68
2020/12/20 11:27:13;;;;;;;72.40;44.28;;;;;;;;;;5055612;28;20028;-68
2020/12/20 11:29:39;;;;;;;69.43;43.45;;;;;;;;;;5055482;28;20535;-68
2020/12/20 11:32:06;;;;;;;73.45;42.83;;;;;;;;;;5055887;28;20438;-68
2020/12/20 11:34:32;;;;;;;77.97;43.28;;;;;;;;;;5055457;28;20096;-68
2020/12/20 11:36:58;;;;;;;74.28;43.97;;;;;;;;;;5055457;28;20061;-68
2020/12/20 11:39:24;;;;;;;77.30;45.83;;;;;;;;;;5055244;28;20075;-68
2020/12/20 11:41:51;;;;;;;77.50;44.83;;;;;;;;;;5055254;28;20485;-67
2020/12/20 11:44:17;;;;;;;70.22;43.10;;;;;;;;;;5055125;28;20474;-68
2020/12/20 11:46:43;;;;;;;76.05;46.70;;;;;;;;;;5055244;28;20017;-68
2020/12/20 11:49:10;;;;;;;80.90;45.90;;;;;;;;;;5055084;28;20025;-68
2020/12/20 11:51:36;;;;;;;70.15;45.60;;;;;;;;;;5055597;28;20386;-68
2020/12/20 11:54:02;;;;;;;78.15;43.70;;;;;;;;;;5054966;28;20473;-68
2020/12/20 11:56:28;;;;;;;66.88;41.33;;;;;;;;;;5037285;28;20036;-68
2020/12/20 11:58:54;;;;;;;60.85;37.53;;;;;;;;;;5054964;28;20047;-67
2020/12/20 12:01:21;;;;;;;73.40;39.80;;;;;;;;;;5055048;28;20112;-68
2020/12/20 12:03:48;;;;;;;67.95;37.80;;;;;;;;;;5055182;28;20382;-68
2020/12/20 12:06:14;;;;;;;63.50;38.88;;;;;;;;;;5055110;28;20024;-68
2020/12/20 12:08:41;;;;;;;62.38;37.25;;;;;;;;;;5054786;28;20036;-68
2020/12/20 12:11:07;;;;;;;66.20;37.15;;;;;;;;;;5055019;28;20017;-68
2020/12/20 12:13:33;;;;;;;59.10;36.80;;;;;;;;;;5054713;28;20112;-68
2020/12/20 12:15:59;;;;;;;62.97;35.03;;;;;;;;;;5054611;28;20021;-68
2020/12/20 12:18:26;;;;;;;55.38;35.30;;;;;;;;;;5054501;28;20075;-68
2020/12/20 12:20:52;;;;;;;60.80;36.63;;;;;;;;;;5054415;28;20102;-68
2020/12/20 12:23:18;;;;;;;62.13;37.03;;;;;;;;;;5053781;28;20390;-66
2020/12/20 12:25:44;;;;;;;58.00;35.55;;;;;;;;;;5038825;28;20033;-67
2020/12/20 12:28:10;;;;;;;58.72;36.20;;;;;;;;;;5053983;28;20031;-68
2020/12/20 12:30:36;;;;;;;60.88;36.10;;;;;;;;;;5053696;28;20509;-68
2020/12/20 12:33:02;;;;;;;61.05;36.25;;;;;;;;;;5053809;28;20494;-69
2020/12/20 12:35:29;;;;;;;58.53;35.90;;;;;;;;;;5053863;28;20039;-68
2020/12/20 12:37:55;;;;;;;62.38;36.40;;;;;;;;;;5054224;28;20079;-68
2020/12/20 12:40:21;;;;;;;62.95;36.17;;;;;;;;;;5038374;28;20032;-68
2020/12/20 12:42:47;;;;;;;54.90;35.63;;;;;;;;;;5054103;28;20029;-67
2020/12/20 12:45:14;;;;;;;56.55;34.78;;;;;;;;;;5047878;28;20147;-67
2020/12/20 12:47:41;;;;;;;62.55;36.17;;;;;;;;;;5051869;28;20055;-67
2020/12/20 12:50:08;;;;;;;61.67;35.03;;;;;;;;;;5049563;28;20025;-69
2020/12/20 12:52:34;;;;;;;52.90;33.63;;;;;;;;;;5053056;28;20120;-68
2020/12/20 12:55:00;;;;;;;52.80;31.33;;;;;;;;;;5054379;28;20433;-67
2020/12/20 12:57:26;;;;;;;54.80;32.50;;;;;;;;;;5054128;28;20021;-69
2020/12/20 12:59:53;;;;;;;51.40;32.28;;;;;;;;;;5053911;28;20025;-68
2020/12/20 13:02:19;;;;;;;49.92;31.02;;;;;;;;;;5053996;28;20128;-69
2020/12/20 13:04:45;;;;;;;51.75;32.25;;;;;;;;;;5054110;28;20116;-69
2020/12/20 13:07:11;;;;;;;55.28;35.50;;;;;;;;;;5053480;28;20021;-67
2020/12/20 13:09:37;;;;;;;57.78;33.58;;;;;;;;;;5053707;28;20025;-67
2020/12/20 13:12:04;;;;;;;67.18;38.47;;;;;;;;;;5052561;28;20489;-67
2020/12/20 13:14:30;;;;;;;57.15;36.20;;;;;;;;;;5048817;28;20558;-67
2020/12/20 13:16:56;;;;;;;58.58;33.65;;;;;;;;;;5052867;28;20031;-67
2020/12/20 13:19:23;;;;;;;53.70;30.45;;;;;;;;;;5052663;28;20393;-68
2020/12/20 13:21:50;;;;;;;54.10;33.25;;;;;;;;;;5048430;28;20420;-66
2020/12/20 13:24:16;;;;;;;51.53;32.05;;;;;;;;;;5048170;28;20057;-67
2020/12/20 13:26:43;;;;;;;53.42;31.55;;;;;;;;;;5051355;28;20035;-69
2020/12/20 13:29:09;;;;;;;51.00;31.10;;;;;;;;;;5050303;28;20036;-68
2020/12/20 13:31:35;;;;;;;48.65;30.60;;;;;;;;;;5047806;28;20033;-69
2020/12/20 13:34:01;;;;;;;50.63;32.38;;;;;;;;;;5052496;28;20036;-69
2020/12/20 13:36:27;;;;;;;54.33;30.95;;;;;;;;;;5052073;28;20103;-68
2020/12/20 13:38:54;;;;;;;55.58;32.35;;;;;;;;;;5050010;28;20029;-67
2020/12/20 13:41:20;;;;;;;55.10;33.05;;;;;;;;;;5051478;28;20025;-67
2020/12/20 13:43:46;;;;;;;54.88;33.20;;;;;;;;;;5049140;28;20032;-67
2020/12/20 13:46:12;;;;;;;54.40;35.78;;;;;;;;;;5050509;28;20033;-67
2020/12/20 13:48:39;;;;;;;59.30;36.65;;;;;;;;;;5053558;28;20040;-67
2020/12/20 13:51:05;;;;;;;70.53;37.83;;;;;;;;;;5057953;28;20040;-70
2020/12/20 13:53:31;;;;;;;70.07;38.22;;;;;;;;;;5055232;28;20432;-68
2020/12/20 13:55:57;;;;;;;64.75;39.03;;;;;;;;;;5051353;28;20029;-68
2020/12/20 13:58:23;;;;;;;61.88;38.03;;;;;;;;;;5053125;28;20051;-68
2020/12/20 14:00:50;;;;;;;65.07;38.75;;;;;;;;;;5052937;28;20028;-68
2020/12/20 14:03:16;;;;;;;65.68;39.13;;;;;;;;;;5053292;28;20021;-68
2020/12/20 14:05:42;;;;;;;65.07;38.13;;;;;;;;;;5053189;28;20040;-68
2020/12/20 14:08:09;;;;;;;55.28;37.13;;;;;;;;;;5053216;28;20029;-68
2020/12/20 14:10:35;;;;;;;56.83;35.50;;;;;;;;;;5052933;28;20036;-68
2020/12/20 14:13:01;;;;;;;55.38;31.58;;;;;;;;;;5052959;28;20062;-68
2020/12/20 14:15:28;;;;;;;49.38;31.55;;;;;;;;;;5053006;28;20478;-68